sensor_id;sensor_type;location;lat;lon;timestamp;P1;durP1;ratioP1;P2;durP2;ratioP2
6432;SDS011;3249;42.690;23.260;2023-04-24T00:00:28;14.60;;;13.00;;
6432;SDS011;3249;42.690;23.260;2023-04-24T00:02:57;16.30;;;13.27;;
6432;SDS011;3249;42.690;23.260;2023-04-24T00:05:26;20.73;;;13.10;;
6432;SDS011;3249;42.690;23.260;2023-04-24T00:07:59;13.73;;;12.23;;
6432;SDS011;3249;42.690;23.260;2023-04-24T00:10:29;17.37;;;12.77;;
6432;SDS011;3249;42.690;23.260;2023-04-24T00:12:58;18.07;;;13.77;;
6432;SDS011;3249;42.690;23.260;2023-04-24T00:15:27;14.93;;;13.33;;
6432;SDS011;3249;42.690;23.260;2023-04-24T00:17:56;13.63;;;12.27;;
6432;SDS011;3249;42.690;23.260;2023-04-24T00:20:26;16.27;;;14.53;;
6432;SDS011;3249;42.690;23.260;2023-04-24T00:23:00;19.40;;;15.03;;
6432;SDS011;3249;42.690;23.260;2023-04-24T00:25:29;16.27;;;14.13;;
6432;SDS011;3249;42.690;23.260;2023-04-24T00:27:58;17.93;;;14.03;;
6432;SDS011;3249;42.690;23.260;2023-04-24T00:30:27;19.53;;;14.57;;
6432;SDS011;3249;42.690;23.260;2023-04-24T00:32:57;18.70;;;14.53;;
6432;SDS011;3249;42.690;23.260;2023-04-24T00:35:26;16.53;;;13.27;;
6432;SDS011;3249;42.690;23.260;2023-04-24T00:37:55;17.90;;;14.27;;
6432;SDS011;3249;42.690;23.260;2023-04-24T00:40:27;16.73;;;14.90;;
6432;SDS011;3249;42.690;23.260;2023-04-24T00:42:56;23.20;;;16.60;;
6432;SDS011;3249;42.690;23.260;2023-04-24T00:45:25;24.37;;;15.17;;
6432;SDS011;3249;42.690;23.260;2023-04-24T00:47:56;17.50;;;13.43;;
6432;SDS011;3249;42.690;23.260;2023-04-24T00:50:26;12.90;;;11.23;;
6432;SDS011;3249;42.690;23.260;2023-04-24T00:52:56;14.40;;;12.83;;
6432;SDS011;3249;42.690;23.260;2023-04-24T00:55:28;13.93;;;12.53;;
6432;SDS011;3249;42.690;23.260;2023-04-24T00:57:57;16.57;;;11.67;;
6432;SDS011;3249;42.690;23.260;2023-04-24T01:00:27;15.87;;;11.77;;
6432;SDS011;3249;42.690;23.260;2023-04-24T01:02:57;17.03;;;12.23;;
6432;SDS011;3249;42.690;23.260;2023-04-24T01:05:27;15.93;;;12.70;;
6432;SDS011;3249;42.690;23.260;2023-04-24T01:07:56;15.30;;;12.63;;
6432;SDS011;3249;42.690;23.260;2023-04-24T01:10:29;14.27;;;12.97;;
6432;SDS011;3249;42.690;23.260;2023-04-24T01:13:01;15.03;;;13.57;;
6432;SDS011;3249;42.690;23.260;2023-04-24T01:15:30;14.23;;;12.70;;
6432;SDS011;3249;42.690;23.260;2023-04-24T01:17:59;14.90;;;13.13;;
6432;SDS011;3249;42.690;23.260;2023-04-24T01:20:28;14.60;;;13.07;;
6432;SDS011;3249;42.690;23.260;2023-04-24T01:23:01;16.50;;;12.03;;
6432;SDS011;3249;42.690;23.260;2023-04-24T01:25:29;15.70;;;11.90;;
6432;SDS011;3249;42.690;23.260;2023-04-24T01:27:59;14.47;;;12.13;;
6432;SDS011;3249;42.690;23.260;2023-04-24T01:30:30;13.60;;;9.53;;
6432;SDS011;3249;42.690;23.260;2023-04-24T01:33:00;10.97;;;9.90;;
6432;SDS011;3249;42.690;23.260;2023-04-24T01:35:29;10.13;;;9.23;;
6432;SDS011;3249;42.690;23.260;2023-04-24T01:38:01;10.00;;;9.07;;
6432;SDS011;3249;42.690;23.260;2023-04-24T01:40:31;11.30;;;8.67;;
6432;SDS011;3249;42.690;23.260;2023-04-24T01:43:00;11.57;;;9.37;;
6432;SDS011;3249;42.690;23.260;2023-04-24T01:45:30;9.53;;;8.73;;
6432;SDS011;3249;42.690;23.260;2023-04-24T01:47:59;11.33;;;9.40;;
6432;SDS011;3249;42.690;23.260;2023-04-24T01:50:28;10.13;;;9.23;;
6432;SDS011;3249;42.690;23.260;2023-04-24T01:52:58;14.03;;;8.43;;
6432;SDS011;3249;42.690;23.260;2023-04-24T01:55:29;12.93;;;9.90;;
6432;SDS011;3249;42.690;23.260;2023-04-24T01:57:58;11.17;;;9.73;;
6432;SDS011;3249;42.690;23.260;2023-04-24T02:00:28;11.90;;;9.87;;
6432;SDS011;3249;42.690;23.260;2023-04-24T02:02:58;10.23;;;9.27;;
6432;SDS011;3249;42.690;23.260;2023-04-24T02:05:27;11.43;;;9.27;;
6432;SDS011;3249;42.690;23.260;2023-04-24T02:07:56;11.27;;;10.00;;
6432;SDS011;3249;42.690;23.260;2023-04-24T02:10:27;9.87;;;8.87;;
6432;SDS011;3249;42.690;23.260;2023-04-24T02:12:58;11.10;;;10.00;;
6432;SDS011;3249;42.690;23.260;2023-04-24T02:15:27;14.27;;;10.13;;
6432;SDS011;3249;42.690;23.260;2023-04-24T02:17:56;12.20;;;9.97;;
6432;SDS011;3249;42.690;23.260;2023-04-24T02:20:26;11.17;;;10.13;;
6432;SDS011;3249;42.690;23.260;2023-04-24T02:22:56;12.07;;;10.80;;
6432;SDS011;3249;42.690;23.260;2023-04-24T02:25:24;13.40;;;12.10;;
6432;SDS011;3249;42.690;23.260;2023-04-24T02:27:56;12.70;;;11.40;;
6432;SDS011;3249;42.690;23.260;2023-04-24T02:30:25;12.83;;;11.63;;
6432;SDS011;3249;42.690;23.260;2023-04-24T02:32:54;12.90;;;11.53;;
6432;SDS011;3249;42.690;23.260;2023-04-24T02:35:23;15.03;;;11.23;;
6432;SDS011;3249;42.690;23.260;2023-04-24T02:37:52;12.57;;;11.37;;
6432;SDS011;3249;42.690;23.260;2023-04-24T02:40:21;18.70;;;12.67;;
6432;SDS011;3249;42.690;23.260;2023-04-24T02:42:53;13.60;;;12.00;;
6432;SDS011;3249;42.690;23.260;2023-04-24T02:45:23;13.20;;;11.73;;
6432;SDS011;3249;42.690;23.260;2023-04-24T02:47:53;18.20;;;14.00;;
6432;SDS011;3249;42.690;23.260;2023-04-24T02:50:22;15.83;;;13.47;;
6432;SDS011;3249;42.690;23.260;2023-04-24T02:52:50;17.50;;;14.07;;
6432;SDS011;3249;42.690;23.260;2023-04-24T02:55:20;17.87;;;13.63;;
6432;SDS011;3249;42.690;23.260;2023-04-24T02:57:49;14.50;;;13.03;;
6432;SDS011;3249;42.690;23.260;2023-04-24T03:00:20;18.43;;;13.20;;
6432;SDS011;3249;42.690;23.260;2023-04-24T03:02:49;14.37;;;12.57;;
6432;SDS011;3249;42.690;23.260;2023-04-24T03:05:18;14.43;;;12.97;;
6432;SDS011;3249;42.690;23.260;2023-04-24T03:07:47;15.63;;;13.17;;
6432;SDS011;3249;42.690;23.260;2023-04-24T03:10:18;16.70;;;13.03;;
6432;SDS011;3249;42.690;23.260;2023-04-24T03:12:48;14.93;;;13.33;;
6432;SDS011;3249;42.690;23.260;2023-04-24T03:15:20;15.43;;;13.50;;
6432;SDS011;3249;42.690;23.260;2023-04-24T03:17:49;14.30;;;12.90;;
6432;SDS011;3249;42.690;23.260;2023-04-24T03:20:18;15.97;;;12.70;;
6432;SDS011;3249;42.690;23.260;2023-04-24T03:22:47;14.77;;;11.87;;
6432;SDS011;3249;42.690;23.260;2023-04-24T03:25:17;13.40;;;11.87;;
6432;SDS011;3249;42.690;23.260;2023-04-24T03:27:46;12.50;;;11.23;;
6432;SDS011;3249;42.690;23.260;2023-04-24T03:30:30;12.33;;;11.10;;
6432;SDS011;3249;42.690;23.260;2023-04-24T03:33:01;16.93;;;13.70;;
6432;SDS011;3249;42.690;23.260;2023-04-24T03:35:33;15.43;;;13.07;;
6432;SDS011;3249;42.690;23.260;2023-04-24T03:38:06;22.10;;;14.27;;
6432;SDS011;3249;42.690;23.260;2023-04-24T03:40:41;20.60;;;12.93;;
6432;SDS011;3249;42.690;23.260;2023-04-24T03:43:36;15.80;;;13.47;;
6432;SDS011;3249;42.690;23.260;2023-04-24T03:46:08;19.23;;;14.33;;
6432;SDS011;3249;42.690;23.260;2023-04-24T03:48:42;28.90;;;15.93;;
6432;SDS011;3249;42.690;23.260;2023-04-24T03:51:12;17.23;;;13.73;;
6432;SDS011;3249;42.690;23.260;2023-04-24T03:53:44;19.47;;;13.37;;
6432;SDS011;3249;42.690;23.260;2023-04-24T03:56:17;23.23;;;12.90;;
6432;SDS011;3249;42.690;23.260;2023-04-24T03:58:46;19.47;;;12.43;;
6432;SDS011;3249;42.690;23.260;2023-04-24T04:01:17;18.87;;;12.97;;
6432;SDS011;3249;42.690;23.260;2023-04-24T04:03:53;13.97;;;11.97;;
6432;SDS011;3249;42.690;23.260;2023-04-24T04:06:24;25.77;;;12.50;;
6432;SDS011;3249;42.690;23.260;2023-04-24T04:08:55;19.13;;;12.43;;
6432;SDS011;3249;42.690;23.260;2023-04-24T04:11:25;29.80;;;14.03;;
6432;SDS011;3249;42.690;23.260;2023-04-24T04:13:54;21.50;;;14.07;;
6432;SDS011;3249;42.690;23.260;2023-04-24T04:16:27;15.67;;;11.87;;
6432;SDS011;3249;42.690;23.260;2023-04-24T04:19:01;23.03;;;12.47;;
6432;SDS011;3249;42.690;23.260;2023-04-24T04:21:31;25.63;;;13.07;;
6432;SDS011;3249;42.690;23.260;2023-04-24T04:24:17;15.87;;;13.23;;
6432;SDS011;3249;42.690;23.260;2023-04-24T04:26:48;15.30;;;12.17;;
6432;SDS011;3249;42.690;23.260;2023-04-24T04:29:40;31.10;;;12.87;;
6432;SDS011;3249;42.690;23.260;2023-04-24T04:32:13;27.53;;;14.77;;
6432;SDS011;3249;42.690;23.260;2023-04-24T04:34:42;21.40;;;13.80;;
6432;SDS011;3249;42.690;23.260;2023-04-24T04:37:15;17.07;;;12.97;;
6432;SDS011;3249;42.690;23.260;2023-04-24T04:39:58;17.17;;;11.57;;
6432;SDS011;3249;42.690;23.260;2023-04-24T04:42:36;14.43;;;11.37;;
6432;SDS011;3249;42.690;23.260;2023-04-24T04:45:08;12.17;;;10.97;;
6432;SDS011;3249;42.690;23.260;2023-04-24T04:47:56;14.53;;;11.27;;
6432;SDS011;3249;42.690;23.260;2023-04-24T04:50:26;17.93;;;12.07;;
6432;SDS011;3249;42.690;23.260;2023-04-24T04:53:01;20.73;;;13.23;;
6432;SDS011;3249;42.690;23.260;2023-04-24T04:55:33;19.27;;;11.17;;
6432;SDS011;3249;42.690;23.260;2023-04-24T04:58:11;14.70;;;11.17;;
6432;SDS011;3249;42.690;23.260;2023-04-24T05:00:40;15.83;;;11.27;;
6432;SDS011;3249;42.690;23.260;2023-04-24T05:03:20;25.73;;;11.73;;
6432;SDS011;3249;42.690;23.260;2023-04-24T05:05:56;26.80;;;12.00;;
6432;SDS011;3249;42.690;23.260;2023-04-24T05:08:27;15.30;;;10.60;;
6432;SDS011;3249;42.690;23.260;2023-04-24T05:10:56;20.43;;;11.77;;
6432;SDS011;3249;42.690;23.260;2023-04-24T05:13:27;19.00;;;12.00;;
6432;SDS011;3249;42.690;23.260;2023-04-24T05:15:57;13.13;;;11.57;;
6432;SDS011;3249;42.690;23.260;2023-04-24T05:18:29;22.90;;;12.70;;
6432;SDS011;3249;42.690;23.260;2023-04-24T05:20:58;17.73;;;11.63;;
6432;SDS011;3249;42.690;23.260;2023-04-24T05:23:27;17.37;;;11.90;;
6432;SDS011;3249;42.690;23.260;2023-04-24T05:25:57;28.10;;;13.50;;
6432;SDS011;3249;42.690;23.260;2023-04-24T05:28:27;15.70;;;12.77;;
6432;SDS011;3249;42.690;23.260;2023-04-24T05:31:04;17.93;;;14.03;;
6432;SDS011;3249;42.690;23.260;2023-04-24T05:33:36;23.47;;;16.13;;
6432;SDS011;3249;42.690;23.260;2023-04-24T05:36:06;25.67;;;15.90;;
6432;SDS011;3249;42.690;23.260;2023-04-24T05:38:35;17.43;;;14.27;;
6432;SDS011;3249;42.690;23.260;2023-04-24T05:41:04;26.70;;;14.93;;
6432;SDS011;3249;42.690;23.260;2023-04-24T05:43:33;26.43;;;17.67;;
6432;SDS011;3249;42.690;23.260;2023-04-24T05:46:02;24.67;;;15.30;;
6432;SDS011;3249;42.690;23.260;2023-04-24T05:48:31;21.93;;;15.60;;
6432;SDS011;3249;42.690;23.260;2023-04-24T05:51:05;27.90;;;17.80;;
6432;SDS011;3249;42.690;23.260;2023-04-24T05:53:34;23.87;;;14.80;;
6432;SDS011;3249;42.690;23.260;2023-04-24T05:56:04;25.53;;;17.00;;
6432;SDS011;3249;42.690;23.260;2023-04-24T05:58:34;17.00;;;14.50;;
6432;SDS011;3249;42.690;23.260;2023-04-24T06:01:04;21.50;;;14.60;;
6432;SDS011;3249;42.690;23.260;2023-04-24T06:03:34;23.33;;;16.77;;
6432;SDS011;3249;42.690;23.260;2023-04-24T06:06:06;19.57;;;16.63;;
6432;SDS011;3249;42.690;23.260;2023-04-24T06:08:35;25.63;;;18.27;;
6432;SDS011;3249;42.690;23.260;2023-04-24T06:11:05;18.57;;;13.60;;
6432;SDS011;3249;42.690;23.260;2023-04-24T06:13:34;21.20;;;12.40;;
6432;SDS011;3249;42.690;23.260;2023-04-24T06:16:29;19.67;;;13.80;;
6432;SDS011;3249;42.690;23.260;2023-04-24T06:19:05;20.77;;;14.83;;
6432;SDS011;3249;42.690;23.260;2023-04-24T06:21:37;19.37;;;13.10;;
6432;SDS011;3249;42.690;23.260;2023-04-24T06:24:06;16.20;;;12.70;;
6432;SDS011;3249;42.690;23.260;2023-04-24T06:26:35;20.43;;;11.80;;
6432;SDS011;3249;42.690;23.260;2023-04-24T06:29:07;20.27;;;12.50;;
6432;SDS011;3249;42.690;23.260;2023-04-24T06:31:36;20.50;;;10.63;;
6432;SDS011;3249;42.690;23.260;2023-04-24T06:34:05;14.37;;;12.13;;
6432;SDS011;3249;42.690;23.260;2023-04-24T06:36:37;19.73;;;15.73;;
6432;SDS011;3249;42.690;23.260;2023-04-24T06:39:06;16.50;;;11.50;;
6432;SDS011;3249;42.690;23.260;2023-04-24T06:41:35;12.93;;;11.13;;
6432;SDS011;3249;42.690;23.260;2023-04-24T06:44:05;14.33;;;11.87;;
6432;SDS011;3249;42.690;23.260;2023-04-24T06:46:34;14.57;;;11.70;;
6432;SDS011;3249;42.690;23.260;2023-04-24T06:49:03;14.07;;;11.97;;
6432;SDS011;3249;42.690;23.260;2023-04-24T06:51:32;14.13;;;11.60;;
6432;SDS011;3249;42.690;23.260;2023-04-24T06:54:04;13.63;;;10.27;;
6432;SDS011;3249;42.690;23.260;2023-04-24T06:56:33;11.50;;;10.10;;
6432;SDS011;3249;42.690;23.260;2023-04-24T06:59:02;14.70;;;9.70;;
6432;SDS011;3249;42.690;23.260;2023-04-24T07:01:31;15.93;;;9.23;;
6432;SDS011;3249;42.690;23.260;2023-04-24T07:04:00;12.47;;;10.00;;
6432;SDS011;3249;42.690;23.260;2023-04-24T07:06:29;10.47;;;9.50;;
6432;SDS011;3249;42.690;23.260;2023-04-24T07:08:58;9.93;;;8.93;;
6432;SDS011;3249;42.690;23.260;2023-04-24T07:11:31;12.97;;;9.73;;
6432;SDS011;3249;42.690;23.260;2023-04-24T07:14:03;10.83;;;9.43;;
6432;SDS011;3249;42.690;23.260;2023-04-24T07:16:32;12.20;;;10.43;;
6432;SDS011;3249;42.690;23.260;2023-04-24T07:19:01;11.87;;;9.67;;
6432;SDS011;3249;42.690;23.260;2023-04-24T07:21:30;14.03;;;9.93;;
6432;SDS011;3249;42.690;23.260;2023-04-24T07:23:59;11.03;;;9.30;;
6432;SDS011;3249;42.690;23.260;2023-04-24T07:26:31;11.27;;;8.43;;
6432;SDS011;3249;42.690;23.260;2023-04-24T07:29:01;10.67;;;9.37;;
6432;SDS011;3249;42.690;23.260;2023-04-24T07:31:30;9.83;;;8.97;;
6432;SDS011;3249;42.690;23.260;2023-04-24T07:33:59;12.40;;;10.17;;
6432;SDS011;3249;42.690;23.260;2023-04-24T07:36:28;10.83;;;9.73;;
6432;SDS011;3249;42.690;23.260;2023-04-24T07:38:57;15.47;;;10.83;;
6432;SDS011;3249;42.690;23.260;2023-04-24T07:41:27;13.37;;;9.63;;
6432;SDS011;3249;42.690;23.260;2023-04-24T07:43:58;11.20;;;10.10;;
6432;SDS011;3249;42.690;23.260;2023-04-24T07:46:28;11.27;;;10.17;;
6432;SDS011;3249;42.690;23.260;2023-04-24T07:48:58;11.57;;;9.30;;
6432;SDS011;3249;42.690;23.260;2023-04-24T07:51:27;14.03;;;10.03;;
6432;SDS011;3249;42.690;23.260;2023-04-24T07:53:57;12.23;;;9.10;;
6432;SDS011;3249;42.690;23.260;2023-04-24T07:56:27;14.87;;;10.23;;
6432;SDS011;3249;42.690;23.260;2023-04-24T07:58:59;10.60;;;9.50;;
6432;SDS011;3249;42.690;23.260;2023-04-24T08:01:29;16.47;;;10.23;;
6432;SDS011;3249;42.690;23.260;2023-04-24T08:03:58;11.50;;;10.33;;
6432;SDS011;3249;42.690;23.260;2023-04-24T08:06:27;13.03;;;10.93;;
6432;SDS011;3249;42.690;23.260;2023-04-24T08:08:57;13.70;;;10.60;;
6432;SDS011;3249;42.690;23.260;2023-04-24T08:11:26;11.40;;;10.30;;
6432;SDS011;3249;42.690;23.260;2023-04-24T08:13:56;12.20;;;10.43;;
6432;SDS011;3249;42.690;23.260;2023-04-24T08:16:27;11.50;;;10.33;;
6432;SDS011;3249;42.690;23.260;2023-04-24T08:18:56;15.03;;;10.27;;
6432;SDS011;3249;42.690;23.260;2023-04-24T08:21:25;12.37;;;11.13;;
6432;SDS011;3249;42.690;23.260;2023-04-24T08:23:55;11.70;;;10.53;;
6432;SDS011;3249;42.690;23.260;2023-04-24T08:26:24;11.70;;;10.50;;
6432;SDS011;3249;42.690;23.260;2023-04-24T08:28:53;13.00;;;9.47;;
6432;SDS011;3249;42.690;23.260;2023-04-24T08:31:25;16.83;;;10.13;;
6432;SDS011;3249;42.690;23.260;2023-04-24T08:33:55;13.83;;;10.13;;
6432;SDS011;3249;42.690;23.260;2023-04-24T08:36:25;12.20;;;11.03;;
6432;SDS011;3249;42.690;23.260;2023-04-24T08:38:55;12.80;;;10.53;;
6432;SDS011;3249;42.690;23.260;2023-04-24T08:41:24;13.40;;;10.63;;
6432;SDS011;3249;42.690;23.260;2023-04-24T08:43:55;10.60;;;9.60;;
6432;SDS011;3249;42.690;23.260;2023-04-24T08:46:28;10.80;;;9.80;;
6432;SDS011;3249;42.690;23.260;2023-04-24T08:48:59;11.80;;;10.60;;
6432;SDS011;3249;42.690;23.260;2023-04-24T08:51:28;13.33;;;9.60;;
6432;SDS011;3249;42.690;23.260;2023-04-24T08:53:59;14.30;;;11.17;;
6432;SDS011;3249;42.690;23.260;2023-04-24T08:56:29;13.90;;;12.50;;
6432;SDS011;3249;42.690;23.260;2023-04-24T08:59:03;11.63;;;10.43;;
6432;SDS011;3249;42.690;23.260;2023-04-24T09:01:35;14.97;;;10.33;;
6432;SDS011;3249;42.690;23.260;2023-04-24T09:04:07;11.40;;;10.40;;
6432;SDS011;3249;42.690;23.260;2023-04-24T09:06:38;10.10;;;9.10;;
6432;SDS011;3249;42.690;23.260;2023-04-24T09:09:07;12.97;;;10.07;;
6432;SDS011;3249;42.690;23.260;2023-04-24T09:11:38;10.60;;;9.63;;
6432;SDS011;3249;42.690;23.260;2023-04-24T09:14:07;11.73;;;9.53;;
6432;SDS011;3249;42.690;23.260;2023-04-24T09:16:40;10.37;;;9.30;;
6432;SDS011;3249;42.690;23.260;2023-04-24T09:19:10;15.30;;;9.17;;
6432;SDS011;3249;42.690;23.260;2023-04-24T09:21:39;12.70;;;10.47;;
6432;SDS011;3249;42.690;23.260;2023-04-24T09:24:14;11.57;;;9.27;;
6432;SDS011;3249;42.690;23.260;2023-04-24T09:26:45;10.27;;;9.37;;
6432;SDS011;3249;42.690;23.260;2023-04-24T09:29:15;12.77;;;10.98;;
6432;SDS011;3249;42.690;23.260;2023-04-24T09:31:47;16.20;;;9.63;;
6432;SDS011;3249;42.690;23.260;2023-04-24T09:34:20;11.20;;;8.60;;
6432;SDS011;3249;42.690;23.260;2023-04-24T09:36:51;12.80;;;9.90;;
6432;SDS011;3249;42.690;23.260;2023-04-24T09:39:20;10.10;;;9.10;;
6432;SDS011;3249;42.690;23.260;2023-04-24T09:41:50;12.37;;;9.33;;
6432;SDS011;3249;42.690;23.260;2023-04-24T09:44:22;15.03;;;9.03;;
6432;SDS011;3249;42.690;23.260;2023-04-24T09:46:55;10.30;;;9.23;;
6432;SDS011;3249;42.690;23.260;2023-04-24T09:49:26;10.03;;;9.13;;
6432;SDS011;3249;42.690;23.260;2023-04-24T09:52:02;11.20;;;8.67;;
6432;SDS011;3249;42.690;23.260;2023-04-24T09:54:31;8.90;;;8.10;;
6432;SDS011;3249;42.690;23.260;2023-04-24T09:57:02;11.37;;;8.57;;
6432;SDS011;3249;42.690;23.260;2023-04-24T09:59:31;10.03;;;8.63;;
6432;SDS011;3249;42.690;23.260;2023-04-24T10:02:03;8.93;;;8.17;;
6432;SDS011;3249;42.690;23.260;2023-04-24T10:04:53;10.03;;;8.07;;
6432;SDS011;3249;42.690;23.260;2023-04-24T10:07:25;10.30;;;7.83;;
6432;SDS011;3249;42.690;23.260;2023-04-24T10:09:54;10.53;;;7.63;;
6432;SDS011;3249;42.690;23.260;2023-04-24T10:12:23;8.13;;;7.33;;
6432;SDS011;3249;42.690;23.260;2023-04-24T10:14:54;9.27;;;7.47;;
6432;SDS011;3249;42.690;23.260;2023-04-24T10:17:26;8.10;;;7.30;;
6432;SDS011;3249;42.690;23.260;2023-04-24T10:19:57;8.40;;;7.60;;
6432;SDS011;3249;42.690;23.260;2023-04-24T10:22:26;12.67;;;7.83;;
6432;SDS011;3249;42.690;23.260;2023-04-24T10:24:58;9.20;;;8.20;;
6432;SDS011;3249;42.690;23.260;2023-04-24T10:27:27;11.60;;;7.53;;
6432;SDS011;3249;42.690;23.260;2023-04-24T10:29:59;8.07;;;7.37;;
6432;SDS011;3249;42.690;23.260;2023-04-24T10:32:32;11.43;;;7.87;;
6432;SDS011;3249;42.690;23.260;2023-04-24T10:35:01;10.70;;;7.30;;
6432;SDS011;3249;42.690;23.260;2023-04-24T10:37:33;9.23;;;7.30;;
6432;SDS011;3249;42.690;23.260;2023-04-24T10:40:05;6.87;;;6.10;;
6432;SDS011;3249;42.690;23.260;2023-04-24T10:42:39;7.70;;;6.10;;
6432;SDS011;3249;42.690;23.260;2023-04-24T10:45:16;5.23;;;4.93;;
6432;SDS011;3249;42.690;23.260;2023-04-24T10:50:42;5.87;;;5.43;;
6432;SDS011;3249;42.690;23.260;2023-04-24T10:53:13;5.20;;;4.90;;
6432;SDS011;3249;42.690;23.260;2023-04-24T10:55:45;5.33;;;5.03;;
6432;SDS011;3249;42.690;23.260;2023-04-24T10:58:15;5.50;;;5.10;;
6432;SDS011;3249;42.690;23.260;2023-04-24T11:00:47;5.83;;;5.37;;
6432;SDS011;3249;42.690;23.260;2023-04-24T11:03:28;5.63;;;4.90;;
6432;SDS011;3249;42.690;23.260;2023-04-24T11:05:59;5.70;;;5.10;;
6432;SDS011;3249;42.690;23.260;2023-04-24T11:08:30;6.20;;;5.27;;
6432;SDS011;3249;42.690;23.260;2023-04-24T11:11:03;5.50;;;5.10;;
6432;SDS011;3249;42.690;23.260;2023-04-24T11:16:32;7.07;;;6.37;;
6432;SDS011;3249;42.690;23.260;2023-04-24T11:19:07;5.37;;;4.97;;
6432;SDS011;3249;42.690;23.260;2023-04-24T11:21:40;6.53;;;6.03;;
6432;SDS011;3249;42.690;23.260;2023-04-24T11:24:24;6.43;;;5.53;;
6432;SDS011;3249;42.690;23.260;2023-04-24T11:26:55;6.13;;;5.63;;
6432;SDS011;3249;42.690;23.260;2023-04-24T11:29:37;6.00;;;5.50;;
6432;SDS011;3249;42.690;23.260;2023-04-24T11:32:15;5.67;;;5.37;;
6432;SDS011;3249;42.690;23.260;2023-04-24T11:34:49;8.13;;;6.00;;
6432;SDS011;3249;42.690;23.260;2023-04-24T11:37:21;6.20;;;5.70;;
6432;SDS011;3249;42.690;23.260;2023-04-24T11:39:51;6.43;;;5.93;;
6432;SDS011;3249;42.690;23.260;2023-04-24T11:42:21;6.47;;;5.83;;
6432;SDS011;3249;42.690;23.260;2023-04-24T11:44:51;7.03;;;6.43;;
6432;SDS011;3249;42.690;23.260;2023-04-24T11:47:27;6.50;;;6.03;;
6432;SDS011;3249;42.690;23.260;2023-04-24T11:50:02;7.60;;;7.10;;
6432;SDS011;3249;42.690;23.260;2023-04-24T11:52:36;6.23;;;5.73;;
6432;SDS011;3249;42.690;23.260;2023-04-24T11:55:07;7.67;;;6.83;;
6432;SDS011;3249;42.690;23.260;2023-04-24T11:57:37;6.10;;;5.67;;
6432;SDS011;3249;42.690;23.260;2023-04-24T12:00:14;6.27;;;5.67;;
6432;SDS011;3249;42.690;23.260;2023-04-24T12:02:45;5.93;;;5.43;;
6432;SDS011;3249;42.690;23.260;2023-04-24T12:05:24;7.00;;;6.33;;
6432;SDS011;3249;42.690;23.260;2023-04-24T12:07:56;7.33;;;5.93;;
6432;SDS011;3249;42.690;23.260;2023-04-24T12:10:26;6.50;;;6.00;;
6432;SDS011;3249;42.690;23.260;2023-04-24T12:12:58;6.07;;;5.57;;
6432;SDS011;3249;42.690;23.260;2023-04-24T12:15:28;6.90;;;6.03;;
6432;SDS011;3249;42.690;23.260;2023-04-24T12:17:57;6.63;;;5.40;;
6432;SDS011;3249;42.690;23.260;2023-04-24T12:20:30;5.73;;;5.23;;
6432;SDS011;3249;42.690;23.260;2023-04-24T12:23:00;6.03;;;5.63;;
6432;SDS011;3249;42.690;23.260;2023-04-24T12:25:30;6.03;;;5.57;;
6432;SDS011;3249;42.690;23.260;2023-04-24T12:28:08;10.30;;;6.77;;
6432;SDS011;3249;42.690;23.260;2023-04-24T12:30:40;5.67;;;5.27;;
6432;SDS011;3249;42.690;23.260;2023-04-24T12:33:11;6.20;;;5.73;;
6432;SDS011;3249;42.690;23.260;2023-04-24T12:35:43;5.87;;;5.47;;
6432;SDS011;3249;42.690;23.260;2023-04-24T12:38:13;6.30;;;5.80;;
6432;SDS011;3249;42.690;23.260;2023-04-24T12:40:44;5.70;;;5.27;;
6432;SDS011;3249;42.690;23.260;2023-04-24T12:43:14;6.23;;;5.83;;
6432;SDS011;3249;42.690;23.260;2023-04-24T12:45:45;5.83;;;5.43;;
6432;SDS011;3249;42.690;23.260;2023-04-24T12:48:14;6.50;;;6.00;;
6432;SDS011;3249;42.690;23.260;2023-04-24T12:50:48;6.23;;;5.83;;
6432;SDS011;3249;42.690;23.260;2023-04-24T12:53:18;6.87;;;6.43;;
6432;SDS011;3249;42.690;23.260;2023-04-24T12:55:46;7.00;;;6.50;;
6432;SDS011;3249;42.690;23.260;2023-04-24T12:58:19;6.87;;;6.27;;
6432;SDS011;3249;42.690;23.260;2023-04-24T13:00:49;6.27;;;5.77;;
6432;SDS011;3249;42.690;23.260;2023-04-24T13:03:18;6.60;;;5.83;;
6432;SDS011;3249;42.690;23.260;2023-04-24T13:05:50;8.37;;;7.63;;
6432;SDS011;3249;42.690;23.260;2023-04-24T13:08:19;8.13;;;7.33;;
6432;SDS011;3249;42.690;23.260;2023-04-24T13:10:48;7.23;;;6.63;;
6432;SDS011;3249;42.690;23.260;2023-04-24T13:13:19;6.23;;;5.77;;
6432;SDS011;3249;42.690;23.260;2023-04-24T13:15:48;6.17;;;5.67;;
6432;SDS011;3249;42.690;23.260;2023-04-24T13:18:17;5.80;;;5.30;;
6432;SDS011;3249;42.690;23.260;2023-04-24T13:20:46;5.67;;;5.17;;
6432;SDS011;3249;42.690;23.260;2023-04-24T13:23:18;6.03;;;5.53;;
6432;SDS011;3249;42.690;23.260;2023-04-24T13:25:48;5.97;;;5.33;;
6432;SDS011;3249;42.690;23.260;2023-04-24T13:28:17;6.13;;;5.73;;
6432;SDS011;3249;42.690;23.260;2023-04-24T13:30:46;7.97;;;6.23;;
6432;SDS011;3249;42.690;23.260;2023-04-24T13:33:15;10.63;;;6.33;;
6432;SDS011;3249;42.690;23.260;2023-04-24T13:35:44;8.47;;;5.20;;
6432;SDS011;3249;42.690;23.260;2023-04-24T13:38:13;6.33;;;5.67;;
6432;SDS011;3249;42.690;23.260;2023-04-24T13:40:45;9.23;;;5.30;;
6432;SDS011;3249;42.690;23.260;2023-04-24T13:43:15;5.40;;;5.00;;
6432;SDS011;3249;42.690;23.260;2023-04-24T13:45:43;6.30;;;5.80;;
6432;SDS011;3249;42.690;23.260;2023-04-24T13:48:13;6.00;;;5.47;;
6432;SDS011;3249;42.690;23.260;2023-04-24T13:50:42;5.47;;;4.77;;
6432;SDS011;3249;42.690;23.260;2023-04-24T13:53:13;5.70;;;5.20;;
6432;SDS011;3249;42.690;23.260;2023-04-24T13:55:42;5.90;;;5.37;;
6432;SDS011;3249;42.690;23.260;2023-04-24T13:58:14;6.00;;;5.40;;
6432;SDS011;3249;42.690;23.260;2023-04-24T14:00:43;9.63;;;7.63;;
6432;SDS011;3249;42.690;23.260;2023-04-24T14:03:12;5.70;;;5.20;;
6432;SDS011;3249;42.690;23.260;2023-04-24T14:05:42;7.07;;;5.03;;
6432;SDS011;3249;42.690;23.260;2023-04-24T14:08:10;7.73;;;5.73;;
6432;SDS011;3249;42.690;23.260;2023-04-24T14:10:39;8.40;;;5.80;;
6432;SDS011;3249;42.690;23.260;2023-04-24T14:13:08;5.80;;;5.40;;
6432;SDS011;3249;42.690;23.260;2023-04-24T14:15:40;5.80;;;5.37;;
6432;SDS011;3249;42.690;23.260;2023-04-24T14:18:09;8.57;;;5.80;;
6432;SDS011;3249;42.690;23.260;2023-04-24T14:20:38;7.47;;;5.20;;
6432;SDS011;3249;42.690;23.260;2023-04-24T14:23:07;5.33;;;4.83;;
6432;SDS011;3249;42.690;23.260;2023-04-24T14:25:36;6.50;;;5.93;;
6432;SDS011;3249;42.690;23.260;2023-04-24T14:28:06;13.60;;;7.87;;
6432;SDS011;3249;42.690;23.260;2023-04-24T14:30:35;6.63;;;4.93;;
6432;SDS011;3249;42.690;23.260;2023-04-24T14:33:08;11.30;;;10.13;;
6432;SDS011;3249;42.690;23.260;2023-04-24T14:35:38;8.77;;;6.30;;
6432;SDS011;3249;42.690;23.260;2023-04-24T14:38:08;10.00;;;5.47;;
6432;SDS011;3249;42.690;23.260;2023-04-24T14:40:37;6.50;;;5.90;;
6432;SDS011;3249;42.690;23.260;2023-04-24T14:43:07;6.97;;;6.33;;
6432;SDS011;3249;42.690;23.260;2023-04-24T14:45:36;11.63;;;5.77;;
6432;SDS011;3249;42.690;23.260;2023-04-24T14:48:09;6.67;;;6.17;;
6432;SDS011;3249;42.690;23.260;2023-04-24T14:50:38;7.00;;;6.10;;
6432;SDS011;3249;42.690;23.260;2023-04-24T14:53:07;10.73;;;7.70;;
6432;SDS011;3249;42.690;23.260;2023-04-24T14:55:37;8.07;;;7.40;;
6432;SDS011;3249;42.690;23.260;2023-04-24T14:58:07;6.73;;;6.03;;
6432;SDS011;3249;42.690;23.260;2023-04-24T15:00:36;7.33;;;5.60;;
6432;SDS011;3249;42.690;23.260;2023-04-24T15:03:06;5.90;;;5.30;;
6432;SDS011;3249;42.690;23.260;2023-04-24T15:05:39;5.87;;;5.57;;
6432;SDS011;3249;42.690;23.260;2023-04-24T15:08:09;6.03;;;5.50;;
6432;SDS011;3249;42.690;23.260;2023-04-24T15:10:38;6.60;;;6.00;;
6432;SDS011;3249;42.690;23.260;2023-04-24T15:13:08;7.30;;;5.67;;